Time;durP1;ratioP1;P1;durP2;ratioP2;P2;SDS_P1;SDS_P2;PMS_P1;PMS_P2;Temp;Humidity;BMP_temperature;BMP_pressure;BME280_temperature;BME280_humidity;BME280_pressure;Samples;Min_cycle;Max_cycle;Signal;HPM_P1;HPM_P2
2022/02/25 00:01:19;;;;;;;0.88;0.88;;;1.50;99.90;;;;;;5055421;28;20135;-87
2022/02/25 00:03:46;;;;;;;0.80;0.80;;;1.40;99.90;;;;;;5055766;28;20490;-88
2022/02/25 00:06:13;;;;;;;1.58;1.10;;;1.40;99.90;;;;;;5055489;28;20049;-87
2022/02/25 00:08:41;;;;;;;1.45;1.25;;;1.40;99.90;;;;;;5055252;28;20053;-87
2022/02/25 00:11:08;;;;;;;1.35;1.17;;;1.30;99.90;;;;;;5055349;28;20045;-87
2022/02/25 00:13:35;;;;;;;1.60;1.25;;;1.20;99.90;;;;;;5055361;28;20476;-87
2022/02/25 00:16:01;;;;;;;2.05;1.52;;;1.20;99.90;;;;;;5055235;28;20060;-88
2022/02/25 00:18:28;;;;;;;2.65;1.50;;;1.20;99.90;;;;;;5055325;28;20077;-88
2022/02/25 00:20:55;;;;;;;1.88;1.77;;;1.20;99.90;;;;;;5055172;28;20051;-88
2022/02/25 00:23:22;;;;;;;1.75;1.65;;;1.30;99.90;;;;;;5054567;28;20132;-88
2022/02/25 00:25:49;;;;;;;1.95;1.65;;;1.30;99.90;;;;;;5055140;28;20045;-88
2022/02/25 00:28:15;;;;;;;3.05;1.45;;;1.40;99.90;;;;;;5055418;28;20052;-88
2022/02/25 00:30:42;;;;;;;1.92;1.40;;;1.40;99.90;;;;;;5058094;28;20053;-87
2022/02/25 00:33:11;;;;;;;3.17;1.52;;;1.50;99.90;;;;;;5055084;28;20056;-87
2022/02/25 00:35:38;;;;;;;1.85;1.30;;;1.50;99.90;;;;;;5055108;28;20060;-89
2022/02/25 00:38:05;;;;;;;2.35;1.38;;;1.50;99.90;;;;;;5054900;28;20057;-88
2022/02/25 00:40:31;;;;;;;2.60;1.48;;;1.60;99.90;;;;;;5054428;28;20132;-88
2022/02/25 00:42:58;;;;;;;2.00;1.52;;;1.60;99.90;;;;;;5054638;28;20440;-88
2022/02/25 00:45:25;;;;;;;1.95;1.77;;;1.60;99.90;;;;;;5054692;28;20049;-88
2022/02/25 00:47:51;;;;;;;1.50;1.40;;;1.50;99.90;;;;;;5054850;28;20131;-88
2022/02/25 00:50:18;;;;;;;1.83;1.27;;;1.50;99.90;;;;;;5054370;28;20049;-88
2022/02/25 00:52:45;;;;;;;1.50;1.40;;;1.50;99.90;;;;;;5054783;28;20048;-88
2022/02/25 00:55:11;;;;;;;1.67;1.58;;;1.60;99.90;;;;;;5054386;28;20059;-88
2022/02/25 00:57:49;;;;;;;1.65;1.55;;;1.60;99.90;;;;;;5054367;28;20048;-87
2022/02/25 01:00:18;;;;;;;2.05;1.42;;;1.60;99.90;;;;;;5054187;28;20474;-88
2022/02/25 01:02:46;;;;;;;1.50;1.40;;;1.70;99.90;;;;;;5054317;28;20049;-88
2022/02/25 01:05:13;;;;;;;1.77;1.65;;;1.60;99.90;;;;;;5055927;28;20067;-88
2022/02/25 01:07:41;;;;;;;1.73;1.60;;;1.70;99.90;;;;;;5054710;28;20072;-88
2022/02/25 01:10:12;;;;;;;1.90;1.80;;;1.70;99.90;;;;;;5053617;28;20122;-88
2022/02/25 01:12:38;;;;;;;2.47;2.00;;;1.80;99.90;;;;;;5054281;28;20045;-87
2022/02/25 01:15:06;;;;;;;2.20;1.42;;;1.90;99.90;;;;;;5054372;28;20143;-88
2022/02/25 01:17:33;;;;;;;1.48;1.48;;;1.90;99.90;;;;;;5054158;28;20064;-88
2022/02/25 01:20:02;;;;;;;1.20;1.20;;;2.00;99.90;;;;;;5053899;28;20505;-86
2022/02/25 01:22:29;;;;;;;2.25;1.63;;;2.00;99.90;;;;;;5054332;28;20073;-88
2022/02/25 01:24:56;;;;;;;3.95;1.67;;;2.00;99.90;;;;;;5054053;28;20049;-88
2022/02/25 01:27:23;;;;;;;1.60;1.50;;;2.00;99.90;;;;;;5054430;28;20059;-88
2022/02/25 01:29:50;;;;;;;3.70;1.30;;;2.10;99.90;;;;;;5054013;28;20104;-87
2022/02/25 01:32:17;;;;;;;1.45;1.35;;;2.10;99.90;;;;;;5053890;28;20049;-87
2022/02/25 01:34:44;;;;;;;1.70;1.60;;;2.00;99.90;;;;;;5053994;28;20059;-87
2022/02/25 01:37:11;;;;;;;1.23;1.20;;;2.10;99.90;;;;;;5053842;28;20045;-87
2022/02/25 01:39:37;;;;;;;1.30;1.20;;;2.10;99.90;;;;;;5053940;28;20408;-86
2022/02/25 01:42:06;;;;;;;1.75;1.02;;;2.10;99.90;;;;;;5053574;28;20049;-86
2022/02/25 01:44:37;;;;;;;1.15;1.05;;;1.90;99.90;;;;;;5056292;28;20117;-86
2022/02/25 01:47:04;;;;;;;1.58;0.98;;;1.90;99.90;;;;;;5053541;28;20052;-85
2022/02/25 01:49:32;;;;;;;1.27;0.90;;;1.80;99.90;;;;;;5053423;28;20055;-85
2022/02/25 01:52:01;;;;;;;1.35;0.80;;;1.70;99.90;;;;;;5053200;28;20478;-86
2022/02/25 01:54:29;;;;;;;1.08;1.08;;;1.60;99.90;;;;;;5053359;28;20063;-86
2022/02/25 01:57:00;;;;;;;0.80;0.80;;;1.50;99.90;;;;;;5053232;28;20056;-86
2022/02/25 01:59:31;;;;;;;0.93;0.93;;;1.40;99.90;;;;;;5053024;28;20048;-86
2022/02/25 02:01:58;;;;;;;1.65;0.85;;;1.40;99.90;;;;;;5053252;28;20073;-85
2022/02/25 02:04:26;;;;;;;0.75;0.75;;;1.40;99.90;;;;;;5053045;28;20135;-85
2022/02/25 02:06:53;;;;;;;0.90;0.90;;;1.50;99.90;;;;;;5053220;28;20075;-86
2022/02/25 02:09:21;;;;;;;3.63;1.13;;;1.60;99.90;;;;;;5052752;28;20087;-85
2022/02/25 02:11:50;;;;;;;0.80;0.80;;;1.60;99.90;;;;;;5052827;28;20131;-84
2022/02/25 02:14:20;;;;;;;0.98;0.98;;;1.60;99.90;;;;;;5052813;28;20049;-85
2022/02/25 02:16:48;;;;;;;1.95;1.00;;;1.70;99.90;;;;;;5052592;28;20485;-86
2022/02/25 02:19:16;;;;;;;1.00;0.80;;;1.60;99.90;;;;;;5052668;28;20053;-85
2022/02/25 02:21:54;;;;;;;0.95;0.90;;;1.70;99.90;;;;;;5051811;28;20067;-85
2022/02/25 02:24:22;;;;;;;2.15;0.68;;;1.70;99.90;;;;;;5052775;28;20420;-85
2022/02/25 02:26:51;;;;;;;3.60;1.00;;;1.70;99.90;;;;;;5052612;28;20055;-85
2022/02/25 02:29:17;;;;;;;1.20;0.90;;;1.70;99.90;;;;;;5052598;28;20067;-85
2022/02/25 02:31:44;;;;;;;1.92;0.80;;;1.80;99.90;;;;;;5052397;28;20063;-85
2022/02/25 02:34:13;;;;;;;2.20;0.80;;;1.80;99.90;;;;;;5052543;28;20099;-86
2022/02/25 02:36:40;;;;;;;2.58;0.65;;;1.70;99.90;;;;;;5052292;28;20049;-85
2022/02/25 02:39:08;;;;;;;2.10;0.70;;;1.60;99.90;;;;;;5052384;28;20053;-85
2022/02/25 02:41:35;;;;;;;1.42;0.60;;;1.60;99.90;;;;;;5052306;28;20111;-86
2022/02/25 02:44:03;;;;;;;0.63;0.60;;;1.50;99.90;;;;;;5052502;28;20052;-86
2022/02/25 02:46:30;;;;;;;2.55;0.70;;;1.40;99.90;;;;;;5052722;28;20131;-85
2022/02/25 02:48:57;;;;;;;1.60;0.75;;;1.40;99.90;;;;;;5052348;28;20080;-85
2022/02/25 02:51:24;;;;;;;0.60;0.55;;;1.40;99.90;;;;;;5051592;28;20074;-86
2022/02/25 02:53:51;;;;;;;0.55;0.55;;;1.30;99.90;;;;;;5052524;28;20045;-86
2022/02/25 02:56:17;;;;;;;2.78;0.80;;;1.40;99.90;;;;;;5052337;28;20056;-86
2022/02/25 02:58:44;;;;;;;0.55;0.50;;;1.40;99.90;;;;;;5053845;28;20056;-86
2022/02/25 03:01:11;;;;;;;0.60;0.60;;;1.40;99.90;;;;;;5053428;28;20593;-85
2022/02/25 03:03:38;;;;;;;1.48;0.60;;;1.40;99.90;;;;;;5052109;28;20135;-86
2022/02/25 03:06:08;;;;;;;2.47;0.60;;;1.40;99.90;;;;;;5052132;28;20049;-86
2022/02/25 03:08:35;;;;;;;0.30;0.30;;;1.40;99.90;;;;;;5051996;28;20081;-86
2022/02/25 03:11:02;;;;;;;0.95;0.40;;;1.40;99.90;;;;;;5052940;28;20055;-86
2022/02/25 03:13:29;;;;;;;0.30;0.30;;;1.40;99.90;;;;;;5052811;28;20135;-86
2022/02/25 03:15:55;;;;;;;1.02;0.40;;;1.30;99.90;;;;;;5057320;28;20049;-87
2022/02/25 03:18:22;;;;;;;1.15;0.30;;;1.30;99.90;;;;;;5059874;28;20047;-87
2022/02/25 03:20:49;;;;;;;1.55;0.50;;;1.30;99.90;;;;;;5051629;28;20464;-86
2022/02/25 03:23:16;;;;;;;0.38;0.38;;;1.30;99.90;;;;;;5051685;28;20488;-86
2022/02/25 03:25:42;;;;;;;1.15;0.30;;;1.20;99.90;;;;;;5051969;28;20055;-86
2022/02/25 03:28:09;;;;;;;0.65;0.30;;;1.20;99.90;;;;;;5052126;28;20546;-87
2022/02/25 03:30:36;;;;;;;1.35;0.30;;;1.10;99.90;;;;;;5051568;28;20178;-87
2022/02/25 03:33:03;;;;;;;0.50;0.50;;;1.10;99.90;;;;;;5055332;28;20049;-86
2022/02/25 03:35:32;;;;;;;0.63;0.35;;;1.10;99.90;;;;;;5056145;28;20053;-86
2022/02/25 03:37:59;;;;;;;0.60;0.60;;;1.00;99.90;;;;;;5055788;28;20084;-87
2022/02/25 03:40:27;;;;;;;0.68;0.60;;;0.90;99.90;;;;;;5055950;28;20103;-87
2022/02/25 03:42:54;;;;;;;0.57;0.55;;;0.80;99.90;;;;;;5056275;28;20048;-87
2022/02/25 03:45:22;;;;;;;0.50;0.50;;;0.80;99.90;;;;;;5055735;28;20053;-88
2022/02/25 03:47:49;;;;;;;0.50;0.50;;;0.80;99.90;;;;;;5055896;28;20049;-87
2022/02/25 03:50:16;;;;;;;3.10;0.70;;;0.80;99.90;;;;;;5055747;28;20051;-87
2022/02/25 03:52:43;;;;;;;0.70;0.70;;;0.70;99.90;;;;;;5055819;28;20056;-87
2022/02/25 03:55:10;;;;;;;0.70;0.70;;;0.60;99.90;;;;;;5055676;28;20136;-86
2022/02/25 03:57:37;;;;;;;0.93;0.63;;;0.50;99.90;;;;;;5055768;28;20056;-87
2022/02/25 04:00:06;;;;;;;0.70;0.70;;;0.50;99.90;;;;;;5055106;28;20049;-87
2022/02/25 04:02:33;;;;;;;1.77;0.93;;;0.40;99.90;;;;;;5055494;28;20499;-87
2022/02/25 04:05:00;;;;;;;2.53;0.85;;;0.50;99.90;;;;;;5055458;28;20099;-87
2022/02/25 04:07:27;;;;;;;1.00;1.00;;;0.60;99.90;;;;;;5055335;28;20063;-88
2022/02/25 04:09:53;;;;;;;3.75;1.15;;;0.60;99.90;;;;;;5055299;28;20052;-87
2022/02/25 04:12:21;;;;;;;4.32;1.45;;;0.70;99.90;;;;;;5057309;28;20083;-88
2022/02/25 04:14:48;;;;;;;2.72;1.90;;;0.90;99.90;;;;;;5059080;28;20071;-87
2022/02/25 04:17:18;;;;;;;2.75;1.40;;;0.90;99.90;;;;;;5055438;28;20053;-88
2022/02/25 04:19:48;;;;;;;3.95;1.33;;;1.00;99.90;;;;;;5055221;28;20132;-87
2022/02/25 04:22:15;;;;;;;0.98;0.98;;;1.10;99.90;;;;;;5055201;28;20059;-87
2022/02/25 04:24:42;;;;;;;3.30;1.40;;;1.10;99.90;;;;;;5055332;28;20049;-87
2022/02/25 04:27:09;;;;;;;1.95;1.02;;;1.10;99.90;;;;;;5054855;28;20051;-88
2022/02/25 04:29:36;;;;;;;6.20;0.88;;;1.10;99.90;;;;;;5055018;28;20500;-88
2022/02/25 04:32:03;;;;;;;1.67;0.80;;;1.10;99.90;;;;;;5054916;28;20048;-88
2022/02/25 04:34:32;;;;;;;3.92;0.85;;;1.10;99.90;;;;;;5054939;28;20045;-88
2022/02/25 04:36:59;;;;;;;1.48;0.82;;;1.00;99.90;;;;;;5054898;28;20066;-89
2022/02/25 04:39:25;;;;;;;2.92;0.80;;;1.00;99.90;;;;;;5054783;28;20044;-88
2022/02/25 04:41:52;;;;;;;2.13;0.88;;;0.90;99.90;;;;;;5054667;28;20130;-89
2022/02/25 04:44:23;;;;;;;1.95;0.70;;;0.80;99.90;;;;;;5054067;28;20060;-88
2022/02/25 04:46:50;;;;;;;4.53;0.95;;;0.60;99.90;;;;;;5055079;28;20041;-88
2022/02/25 04:49:17;;;;;;;3.67;1.38;;;0.60;99.90;;;;;;5054944;28;20057;-88
2022/02/25 04:51:44;;;;;;;5.50;1.23;;;0.50;99.90;;;;;;5054374;28;20553;-88
2022/02/25 04:54:11;;;;;;;2.88;1.63;;;0.50;99.90;;;;;;5054503;28;20067;-88
2022/02/25 04:56:38;;;;;;;2.92;1.40;;;0.40;99.90;;;;;;5054669;28;20140;-88
2022/02/25 04:59:04;;;;;;;1.10;1.00;;;0.30;99.90;;;;;;5054403;28;20049;-88
2022/02/25 05:01:31;;;;;;;13.70;1.90;;;0.20;99.90;;;;;;5054656;28;20052;-87
2022/02/25 05:03:58;;;;;;;1.77;1.33;;;0.20;99.90;;;;;;5054249;28;20045;-87
2022/02/25 05:06:25;;;;;;;3.88;1.50;;;0.20;99.90;;;;;;5054501;28;20076;-88
2022/02/25 05:08:54;;;;;;;3.33;1.77;;;0.20;99.90;;;;;;5054304;28;20045;-88
2022/02/25 05:11:20;;;;;;;3.15;1.85;;;0.20;99.90;;;;;;5054032;28;20053;-88
2022/02/25 05:13:47;;;;;;;3.28;1.90;;;0.40;99.90;;;;;;5054363;28;20052;-88
2022/02/25 05:22:01;;;;;;;2.92;1.85;;;0.40;99.90;;;;;;5033390;28;20049;-88
2022/02/25 05:24:28;;;;;;;4.40;1.77;;;0.40;99.90;;;;;;5045791;28;20055;-88
2022/02/25 05:26:55;;;;;;;6.50;2.22;;;0.30;99.90;;;;;;5055651;28;20063;-88
2022/02/25 05:29:22;;;;;;;4.68;1.90;;;0.30;99.90;;;;;;5054410;28;20055;-88
2022/02/25 05:31:48;;;;;;;4.70;2.45;;;0.30;99.90;;;;;;5053671;28;20049;-88
2022/02/25 05:34:15;;;;;;;4.38;2.00;;;0.30;99.90;;;;;;5054115;28;20049;-88
2022/02/25 05:36:42;;;;;;;1.77;1.65;;;0.20;99.90;;;;;;5054163;28;20557;-88
2022/02/25 05:39:08;;;;;;;2.80;1.92;;;0.00;99.90;;;;;;5054169;28;20112;-88
2022/02/25 05:41:35;;;;;;;5.68;3.17;;;-0.10;99.90;;;;;;5052423;28;20049;-88
2022/02/25 05:44:03;;;;;;;3.33;2.97;;;-0.10;99.90;;;;;;5053760;28;20051;-89
2022/02/25 05:46:29;;;;;;;4.13;3.38;;;-0.20;99.90;;;;;;5053845;28;20052;-89
2022/02/25 05:48:56;;;;;;;5.45;3.45;;;-0.20;99.90;;;;;;5054706;28;20044;-89
2022/02/25 05:51:23;;;;;;;6.88;3.78;;;-0.40;99.90;;;;;;5053873;28;20132;-89
2022/02/25 05:53:53;;;;;;;4.13;3.33;;;-0.40;99.90;;;;;;5054050;28;20049;-89
2022/02/25 05:56:19;;;;;;;5.72;3.00;;;-0.50;99.90;;;;;;5037285;28;20437;-89
2022/02/25 05:58:46;;;;;;;10.80;6.22;;;-0.50;99.90;;;;;;5053386;28;20056;-89
2022/02/25 06:01:13;;;;;;;10.05;4.57;;;-0.50;99.90;;;;;;5053554;28;20053;-87
2022/02/25 06:03:40;;;;;;;22.33;12.13;;;-0.50;99.90;;;;;;5054309;28;20049;-89
2022/02/25 06:06:07;;;;;;;9.30;5.97;;;-0.40;99.90;;;;;;5054478;28;20060;-90
2022/02/25 06:08:34;;;;;;;8.27;5.43;;;-0.40;99.90;;;;;;5053531;28;20051;-90
2022/02/25 06:11:02;;;;;;;14.55;7.70;;;-0.50;99.90;;;;;;5053282;28;20049;-90
2022/02/25 06:13:29;;;;;;;14.32;6.63;;;-0.50;99.90;;;;;;5053606;28;20082;-90
2022/02/25 06:15:58;;;;;;;15.40;8.07;;;-0.50;99.90;;;;;;5053242;28;20095;-90
2022/02/25 06:18:25;;;;;;;14.20;5.63;;;-0.50;99.90;;;;;;5053394;28;20066;-91
2022/02/25 06:20:52;;;;;;;7.68;3.90;;;-0.30;99.90;;;;;;5053341;28;20132;-89
2022/02/25 06:23:21;;;;;;;8.68;3.63;;;-0.10;99.90;;;;;;5052992;28;20084;-90
2022/02/25 06:25:49;;;;;;;11.02;2.83;;;0.00;99.90;;;;;;5053161;28;20095;-90
2022/02/25 06:28:16;;;;;;;9.38;2.50;;;0.10;99.90;;;;;;5054084;28;20044;-90
2022/02/25 06:30:42;;;;;;;8.73;2.67;;;0.10;99.90;;;;;;5053956;28;20091;-89
2022/02/25 06:33:10;;;;;;;5.22;2.20;;;0.20;99.90;;;;;;5053205;28;20127;-91
2022/02/25 06:35:37;;;;;;;5.60;2.25;;;0.20;99.90;;;;;;5053055;28;20048;-89
2022/02/25 06:38:04;;;;;;;3.22;2.00;;;0.30;99.90;;;;;;5054162;28;20045;-89
2022/02/25 06:40:31;;;;;;;5.05;2.20;;;0.30;99.90;;;;;;5053926;28;20049;-89
2022/02/25 06:42:58;;;;;;;5.25;2.15;;;0.30;99.90;;;;;;5054530;28;20425;-90
2022/02/25 06:45:25;;;;;;;3.25;2.33;;;0.30;99.90;;;;;;5053950;28;20052;-90
2022/02/25 06:47:52;;;;;;;4.05;2.60;;;0.50;99.90;;;;;;5052817;28;20048;-90
2022/02/25 06:50:19;;;;;;;6.78;3.63;;;0.70;99.90;;;;;;5053668;28;20075;-88
2022/02/25 06:52:46;;;;;;;10.18;5.07;;;0.70;99.90;;;;;;5052476;28;20128;-89
2022/02/25 06:55:16;;;;;;;5.32;3.00;;;0.70;99.90;;;;;;5052792;28;20079;-89
2022/02/25 06:58:02;;;;;;;3.97;2.00;;;0.60;99.90;;;;;;5053667;28;20073;-90
2022/02/25 07:00:29;;;;;;;5.32;1.80;;;0.70;99.90;;;;;;5053683;28;20048;-89
2022/02/25 07:02:57;;;;;;;6.13;1.98;;;0.70;99.90;;;;;;5053349;28;20481;-89
2022/02/25 07:05:25;;;;;;;5.50;2.15;;;0.70;99.90;;;;;;5052256;28;20084;-89
2022/02/25 07:07:52;;;;;;;3.65;1.63;;;0.90;99.90;;;;;;5051464;28;20130;-89
2022/02/25 07:10:19;;;;;;;4.10;1.65;;;0.90;99.90;;;;;;5053305;28;20151;-90
2022/02/25 07:12:46;;;;;;;2.17;1.38;;;1.00;99.90;;;;;;5051754;28;20053;-90
2022/02/25 07:15:14;;;;;;;1.65;1.38;;;1.10;99.90;;;;;;5052203;28;20049;-90
2022/02/25 07:17:41;;;;;;;5.28;1.60;;;1.30;99.90;;;;;;5052195;28;20060;-89
2022/02/25 07:20:09;;;;;;;3.47;1.70;;;1.40;99.90;;;;;;5051931;28;20049;-89
2022/02/25 07:22:44;;;;;;;2.45;1.80;;;1.40;99.90;;;;;;5052289;28;20144;-88
2022/02/25 07:25:11;;;;;;;11.38;2.58;;;1.50;99.90;;;;;;5052287;28;20059;-89
2022/02/25 07:27:38;;;;;;;5.60;1.48;;;1.50;99.90;;;;;;5051149;28;20041;-89
2022/02/25 07:30:05;;;;;;;4.47;1.42;;;1.60;99.90;;;;;;5048396;28;20053;-89
2022/02/25 07:32:32;;;;;;;5.18;1.52;;;1.60;99.90;;;;;;5031529;28;20053;-90
2022/02/25 07:34:59;;;;;;;3.38;1.50;;;1.70;99.90;;;;;;5032678;28;20076;-90
2022/02/25 07:37:25;;;;;;;3.45;1.27;;;1.80;99.90;;;;;;5032428;28;20049;-87
2022/02/25 07:39:52;;;;;;;4.88;1.50;;;1.90;99.90;;;;;;5032068;28;20045;-90
2022/02/25 07:42:23;;;;;;;2.25;1.52;;;2.10;99.90;;;;;;5033186;28;20068;-89
2022/02/25 07:44:50;;;;;;;4.38;1.23;;;2.20;99.90;;;;;;5032708;28;20060;-90
2022/02/25 07:47:19;;;;;;;2.10;1.20;;;2.30;99.90;;;;;;5032379;28;20053;-89
2022/02/25 07:49:47;;;;;;;5.20;1.50;;;2.40;99.90;;;;;;5032373;28;20053;-90
2022/02/25 07:52:14;;;;;;;5.45;0.98;;;2.50;99.90;;;;;;5032499;28;20088;-91
2022/02/25 07:54:41;;;;;;;3.63;1.20;;;2.50;99.90;;;;;;5033411;28;20069;-90
2022/02/25 07:57:09;;;;;;;2.95;1.10;;;2.60;99.90;;;;;;5034368;28;20088;-87
2022/02/25 07:59:35;;;;;;;4.75;1.30;;;2.60;99.90;;;;;;5048398;28;20056;-89
2022/02/25 08:02:03;;;;;;;2.78;1.00;;;2.60;99.90;;;;;;5048641;28;20057;-90
2022/02/25 08:04:30;;;;;;;5.43;1.10;;;2.80;99.90;;;;;;5032614;28;20057;-89
2022/02/25 08:07:17;;;;;;;5.22;1.60;;;3.30;99.90;;;;;;5032656;28;20050;-92
2022/02/25 08:09:44;;;;;;;4.78;1.15;;;4.30;99.90;;;;;;5032487;28;20140;-88
2022/02/25 08:12:10;;;;;;;4.18;1.38;;;4.80;99.90;;;;;;5032093;28;20240;-91
2022/02/25 08:14:40;;;;;;;3.45;0.80;;;5.10;99.90;;;;;;5031790;28;20072;-90
2022/02/25 08:17:07;;;;;;;1.88;0.85;;;5.50;99.90;;;;;;5032265;28;20064;-88
2022/02/25 08:19:34;;;;;;;2.20;0.95;;;6.20;99.90;;;;;;5035244;28;20049;-88
2022/02/25 08:22:01;;;;;;;1.83;0.85;;;6.80;99.90;;;;;;5034956;28;20132;-89
2022/02/25 08:24:28;;;;;;;3.50;0.90;;;7.20;99.90;;;;;;5052434;28;20053;-87
2022/02/25 08:26:54;;;;;;;3.97;1.13;;;7.50;99.90;;;;;;5054631;28;20064;-89
2022/02/25 08:29:21;;;;;;;4.00;0.98;;;8.80;99.90;;;;;;5055160;28;20049;-92
2022/02/25 08:31:51;;;;;;;1.90;0.90;;;8.40;97.60;;;;;;5054939;28;20053;-90
2022/02/25 08:34:19;;;;;;;5.72;1.15;;;7.60;97.40;;;;;;5054645;28;20128;-87
2022/02/25 08:36:46;;;;;;;5.60;1.10;;;7.00;99.90;;;;;;5051344;28;20494;-89
2022/02/25 08:39:13;;;;;;;3.88;0.90;;;7.00;99.90;;;;;;5034897;28;20056;-92
2022/02/25 08:41:41;;;;;;;2.42;0.80;;;6.70;99.90;;;;;;5037909;28;20485;-90
2022/02/25 08:44:07;;;;;;;2.58;1.10;;;6.50;99.90;;;;;;5052489;28;20049;-91
2022/02/25 08:46:37;;;;;;;3.35;1.33;;;7.00;99.90;;;;;;5054893;28;20060;-88
2022/02/25 08:49:05;;;;;;;5.47;1.10;;;7.40;99.90;;;;;;5054879;28;20072;-90
2022/02/25 08:51:32;;;;;;;2.83;0.70;;;7.70;99.20;;;;;;5054626;28;20497;-91
2022/02/25 08:53:59;;;;;;;2.13;0.77;;;7.60;97.30;;;;;;5054714;28;20426;-89
2022/02/25 08:56:26;;;;;;;2.80;1.17;;;7.60;98.20;;;;;;5054943;28;20053;-90
2022/02/25 08:58:53;;;;;;;4.70;1.17;;;7.70;99.30;;;;;;5054366;28;20049;-91
2022/02/25 09:01:20;;;;;;;4.88;0.90;;;7.40;97.30;;;;;;5054862;28;20049;-90
2022/02/25 09:03:47;;;;;;;5.88;0.73;;;6.50;99.10;;;;;;5055066;28;20096;-92
2022/02/25 09:06:14;;;;;;;4.68;1.30;;;6.00;99.90;;;;;;5054121;28;20049;-89
2022/02/25 09:08:42;;;;;;;5.80;1.77;;;5.80;99.90;;;;;;5055106;28;20053;-90
2022/02/25 09:11:09;;;;;;;6.03;1.25;;;5.50;99.90;;;;;;5052846;28;20049;-90
2022/02/25 09:13:36;;;;;;;10.65;4.70;;;5.40;99.90;;;;;;5055517;28;20046;-89
2022/02/25 09:16:04;;;;;;;4.35;1.35;;;5.30;99.90;;;;;;5054297;28;20045;-88
2022/02/25 09:18:31;;;;;;;3.28;0.95;;;5.20;99.90;;;;;;5054083;28;20127;-90
2022/02/25 09:20:57;;;;;;;2.42;0.93;;;5.00;99.90;;;;;;5054899;28;20052;-89
2022/02/25 09:23:24;;;;;;;5.45;1.00;;;5.20;99.90;;;;;;5054915;28;20140;-93
2022/02/25 09:25:51;;;;;;;6.63;1.00;;;5.10;99.90;;;;;;5054257;28;20178;-90
2022/02/25 09:28:18;;;;;;;5.35;1.05;;;5.00;99.90;;;;;;5054064;28;20140;-90
2022/02/25 09:30:47;;;;;;;7.47;1.08;;;5.00;99.90;;;;;;5053237;28;20052;-93
2022/02/25 09:33:14;;;;;;;4.38;0.93;;;4.90;99.90;;;;;;5053912;28;20115;-90
2022/02/25 09:35:41;;;;;;;3.45;1.10;;;4.70;99.90;;;;;;5053956;28;20051;-91
2022/02/25 09:38:09;;;;;;;7.53;1.17;;;4.50;99.90;;;;;;5055087;28;20084;-90
2022/02/25 09:40:37;;;;;;;2.53;0.90;;;4.80;99.90;;;;;;5054322;28;20354;-87
2022/02/25 09:43:05;;;;;;;6.47;0.90;;;5.90;99.90;;;;;;5053758;28;20505;-89
2022/02/25 09:45:32;;;;;;;4.63;1.25;;;6.00;99.90;;;;;;5054294;28;20045;-89
2022/02/25 09:48:03;;;;;;;1.85;1.00;;;6.00;99.90;;;;;;5053573;28;20382;-91
2022/02/25 09:50:30;;;;;;;3.90;1.30;;;6.00;99.90;;;;;;5053223;28;20059;-92
2022/02/25 09:52:56;;;;;;;5.78;1.10;;;6.80;99.90;;;;;;5053502;28;20420;-89
2022/02/25 09:55:30;;;;;;;1.27;0.65;;;7.60;99.90;;;;;;5053115;28;20071;-91
2022/02/25 09:58:00;;;;;;;;;;;8.90;96.70;;;;;;5053722;28;20143;-90
2022/02/25 10:00:27;;;;;;;3.08;1.05;;;10.50;92.10;;;;;;5052597;28;20522;-92
2022/02/25 10:02:57;;;;;;;5.15;0.80;;;11.20;84.80;;;;;;5053245;28;20099;-90
2022/02/25 10:05:27;;;;;;;4.30;0.90;;;10.90;82.40;;;;;;5053517;28;20049;-93
2022/02/25 10:08:05;;;;;;;3.40;1.05;;;9.40;84.30;;;;;;5054061;28;20075;-89
2022/02/25 10:10:40;;;;;;;5.30;1.27;;;7.90;90.40;;;;;;5052585;28;20063;-90
2022/02/25 10:13:07;;;;;;;4.15;0.95;;;7.40;95.30;;;;;;5052603;28;20049;-91
2022/02/25 10:15:36;;;;;;;4.10;0.90;;;7.10;94.50;;;;;;5052687;28;20044;-90
2022/02/25 10:18:09;;;;;;;6.93;1.40;;;6.70;96.90;;;;;;5053075;28;20049;-92
2022/02/25 10:20:37;;;;;;;4.57;0.90;;;6.20;99.60;;;;;;5052484;28;20052;-89
2022/02/25 10:23:32;;;;;;;5.07;0.90;;;6.00;99.90;;;;;;5052478;28;20045;-89
2022/02/25 10:26:07;;;;;;;3.90;1.10;;;5.70;99.90;;;;;;5053028;28;20390;-86
2022/02/25 10:28:36;;;;;;;5.22;0.70;;;5.80;99.90;;;;;;5052908;28;20037;-89
2022/02/25 10:31:23;;;;;;;2.92;0.80;;;6.50;99.90;;;;;;5054385;28;20412;-88
2022/02/25 10:34:11;;;;;;;6.57;1.20;;;6.40;99.90;;;;;;5051950;28;20094;-88
2022/02/25 10:36:47;;;;;;;9.80;1.30;;;6.20;99.90;;;;;;5049931;28;20057;-89
2022/02/25 10:39:21;;;;;;;5.15;1.05;;;5.90;99.90;;;;;;5053139;28;20045;-89
2022/02/25 10:42:08;;;;;;;8.13;1.35;;;6.00;99.90;;;;;;5052597;28;20100;-89
2022/02/25 10:44:43;;;;;;;4.25;1.13;;;5.90;99.90;;;;;;5052652;28;20489;-89
2022/02/25 10:47:18;;;;;;;2.80;0.80;;;5.80;99.90;;;;;;5052997;28;20053;-89
2022/02/25 10:49:58;;;;;;;3.85;1.00;;;6.70;99.90;;;;;;5053809;28;20080;-89
2022/02/25 10:52:32;;;;;;;5.25;1.10;;;7.90;99.70;;;;;;5052392;28;20126;-89
2022/02/25 10:55:01;;;;;;;3.90;1.25;;;7.90;96.20;;;;;;5052782;28;20410;-89
2022/02/25 10:57:29;;;;;;;10.32;1.55;;;7.60;96.80;;;;;;5052624;28;20049;-89
2022/02/25 10:59:57;;;;;;;5.95;1.90;;;7.60;98.50;;;;;;5052915;28;20056;-89
2022/02/25 11:02:34;;;;;;;5.28;1.73;;;7.50;96.50;;;;;;5053556;28;20053;-90
2022/02/25 11:05:10;;;;;;;6.45;1.40;;;7.50;98.30;;;;;;5052875;28;20049;-93
2022/02/25 11:07:39;;;;;;;9.50;1.40;;;7.60;96.20;;;;;;5053267;28;20055;-90
2022/02/25 11:10:08;;;;;;;4.38;1.05;;;7.70;96.40;;;;;;5052667;28;20417;-92
2022/02/25 11:12:40;;;;;;;5.13;1.88;;;7.10;96.30;;;;;;5052493;28;20104;-90
2022/02/25 11:15:10;;;;;;;6.72;1.20;;;6.90;96.90;;;;;;5052184;28;20059;-90
2022/02/25 11:17:40;;;;;;;5.75;1.40;;;7.10;98.10;;;;;;5052017;28;20413;-90
2022/02/25 11:20:13;;;;;;;5.32;1.20;;;7.10;96.30;;;;;;5052145;28;20053;-88
2022/02/25 11:22:42;;;;;;;6.82;1.27;;;8.50;95.60;;;;;;5052447;28;20053;-89
2022/02/25 11:25:17;;;;;;;1.77;0.90;;;10.10;92.40;;;;;;5052139;28;20140;-90
2022/02/25 11:27:47;;;;;;;3.60;1.17;;;11.60;86.70;;;;;;5053278;28;20136;-89
2022/02/25 11:30:32;;;;;;;3.28;0.93;;;11.50;80.40;;;;;;5052271;28;20153;-89
2022/02/25 11:33:13;;;;;;;4.13;1.00;;;10.70;82.00;;;;;;5053210;28;20128;-89
2022/02/25 11:35:53;;;;;;;6.25;1.42;;;10.80;81.80;;;;;;5052966;28;20132;-89
2022/02/25 11:38:27;;;;;;;3.88;1.00;;;11.30;82.90;;;;;;5055699;28;20106;-91
2022/02/25 11:41:05;;;;;;;9.40;4.32;;;12.30;80.10;;;;;;5053242;28;20045;-90
2022/02/25 11:43:46;;;;;;;5.65;1.25;;;12.90;77.60;;;;;;5053249;28;20457;-90
2022/02/25 11:46:35;;;;;;;4.28;1.83;;;12.40;75.70;;;;;;5057660;28;20056;-90
2022/02/25 11:49:08;;;;;;;9.20;1.83;;;13.30;74.30;;;;;;5055841;28;20128;-90
2022/02/25 11:51:41;;;;;;;11.63;1.80;;;12.90;75.40;;;;;;5059506;28;20067;-90
2022/02/25 11:54:28;;;;;;;4.22;1.40;;;13.70;72.20;;;;;;5061223;28;20045;-89
2022/02/25 11:57:01;;;;;;;5.82;1.08;;;13.00;69.70;;;;;;5059479;28;20063;-90
2022/02/25 11:59:31;;;;;;;7.47;1.25;;;11.60;72.30;;;;;;5057220;28;20417;-88
2022/02/25 12:02:03;;;;;;;7.10;1.60;;;11.10;76.30;;;;;;5057176;28;20063;-94
2022/02/25 12:04:36;;;;;;;8.57;1.40;;;10.90;77.00;;;;;;5057605;28;20056;-93
2022/02/25 12:07:05;;;;;;;5.78;1.70;;;10.00;78.50;;;;;;5057195;28;20048;-88
2022/02/25 12:09:52;;;;;;;4.95;1.10;;;8.90;81.90;;;;;;5056623;28;20132;-93
2022/02/25 12:12:22;;;;;;;5.82;1.23;;;8.10;86.10;;;;;;5057079;28;20485;-90
2022/02/25 12:15:12;;;;;;;7.30;1.23;;;7.90;90.60;;;;;;5056748;28;20094;-89
2022/02/25 12:18:02;;;;;;;6.25;1.23;;;7.70;91.80;;;;;;5055551;28;20076;-90
2022/02/25 12:20:50;;;;;;;8.63;1.30;;;7.40;93.70;;;;;;5055596;28;20083;-92
2022/02/25 12:23:21;;;;;;;4.35;1.10;;;7.70;93.40;;;;;;5054956;28;20420;-89
2022/02/25 12:25:55;;;;;;;8.60;1.27;;;7.70;93.40;;;;;;5055259;28;20052;-88
2022/02/25 12:28:28;;;;;;;9.52;1.52;;;7.60;94.40;;;;;;5055177;28;20102;-90
2022/02/25 12:31:00;;;;;;;6.10;1.60;;;7.70;94.40;;;;;;5054482;28;20080;-91
2022/02/25 12:33:45;;;;;;;2.60;1.30;;;7.60;93.80;;;;;;5055249;28;20049;-93
2022/02/25 12:36:27;;;;;;;3.90;1.33;;;7.10;94.70;;;;;;5054908;28;20137;-90
2022/02/25 12:39:18;;;;;;;3.97;1.50;;;6.70;98.00;;;;;;5056014;28;20083;-91
2022/02/25 12:42:07;;;;;;;4.97;1.58;;;7.10;97.90;;;;;;5055181;28;20045;-90
2022/02/25 12:44:40;;;;;;;5.88;1.30;;;7.50;96.50;;;;;;5055123;28;20405;-90
2022/02/25 12:47:09;;;;;;;8.00;1.30;;;7.50;95.60;;;;;;5055148;28;20099;-88
2022/02/25 12:49:38;;;;;;;9.07;1.60;;;7.20;96.70;;;;;;5055200;28;20145;-90
2022/02/25 12:52:08;;;;;;;5.63;1.30;;;7.40;97.80;;;;;;5055720;28;20128;-92
2022/02/25 12:54:37;;;;;;;7.35;1.40;;;7.40;97.30;;;;;;5058613;28;20099;-91
2022/02/25 12:57:07;;;;;;;8.13;1.27;;;7.40;96.70;;;;;;5054840;28;20045;-92
2022/02/25 12:59:42;;;;;;;4.35;1.33;;;7.40;96.60;;;;;;5054650;28;20452;-91
2022/02/25 13:02:12;;;;;;;7.32;1.52;;;7.50;98.70;;;;;;5054344;28;20045;-90
2022/02/25 13:04:51;;;;;;;9.10;2.35;;;7.40;97.20;;;;;;5053671;28;20091;-89
2022/02/25 13:07:21;;;;;;;7.28;1.20;;;7.50;98.20;;;;;;5055458;28;20112;-90
2022/02/25 13:09:49;;;;;;;9.07;1.58;;;7.80;98.10;;;;;;5054406;28;20045;-91
2022/02/25 13:12:17;;;;;;;4.90;1.10;;;7.80;97.60;;;;;;5052224;28;20045;-92